Sharon Center, Ohio
Current Conditions -  °F | °C
As of 3:54 PM on Tuesday 21 Oct 2014 (Local Time) from KAKR Reporting Station
Overcast Overcast  
Wind Chill: 50°   Ceiling: 1700
Heat Index: 50°   Visibility: 10mi
Dew Point: 44°   Wind: 12mph
Humidity: 80%   Direction: 330°NNW
Pressure: 29.97"   Gusts: NA
Location:  41.1°N, 81.74°W
Report Text: KAKR 211954Z AUTO 33010KT 10SM BKN017 OVC036 10/07 A2997 RMK AO2 RAE07 SLP148 P0000 T01000067
Loading
Personal Weather Stations






























Interactive Weather Map
Tropical Storm Tracking
New forecast layout! Learn more

10-Day Weather Forecast

Advertisements
Track Severe Weather on mobile